createdAt,value
2023-05-20T00:01:57.601Z,0.70
2023-05-20T00:04:24.977Z,0.95
2023-05-20T00:06:52.295Z,0.63
2023-05-20T00:09:19.609Z,0.63
2023-05-20T00:11:47.307Z,0.98
2023-05-20T00:14:14.652Z,0.68
2023-05-20T00:16:42.529Z,0.47
2023-05-20T00:19:09.867Z,0.43
2023-05-20T00:21:37.541Z,0.70
2023-05-20T00:24:04.878Z,0.73
2023-05-20T00:26:32.160Z,0.90
2023-05-20T00:28:59.396Z,0.70
2023-05-20T00:31:26.738Z,0.43
2023-05-20T00:33:53.963Z,0.50
2023-05-20T00:36:21.171Z,0.52
2023-05-20T00:38:48.382Z,0.82
2023-05-20T00:41:15.767Z,0.60
2023-05-20T00:43:43.020Z,0.60
2023-05-20T00:46:10.927Z,0.60
2023-05-20T00:48:43.697Z,0.60
2023-05-20T00:51:14.887Z,1.85
2023-05-20T00:53:43.047Z,0.47
2023-05-20T00:56:10.387Z,0.63
2023-05-20T00:58:39.403Z,0.43
2023-05-20T01:01:07.062Z,0.60
2023-05-20T01:03:34.620Z,0.68
2023-05-20T01:06:02.779Z,0.50
2023-05-20T01:08:30.167Z,0.40
2023-05-20T01:11:26.607Z,0.68
2023-05-20T01:16:26.430Z,0.60
2023-05-20T01:18:57.674Z,0.70
2023-05-20T01:21:25.327Z,0.75
2023-05-20T01:23:52.645Z,0.88
2023-05-20T01:26:22.040Z,0.80
2023-05-20T01:28:49.438Z,0.65
2023-05-20T01:31:28.063Z,0.63
2023-05-20T01:33:59.887Z,0.60
2023-05-20T01:36:29.053Z,0.60
2023-05-20T01:38:57.830Z,0.70
2023-05-20T01:41:27.383Z,0.70
2023-05-20T01:43:55.720Z,0.70
2023-05-20T01:46:23.169Z,0.85
2023-05-20T01:48:50.416Z,0.90
2023-05-20T01:51:18.096Z,0.85
2023-05-20T01:53:45.393Z,1.00
2023-05-20T01:56:12.771Z,0.50
2023-05-20T01:58:40.010Z,0.70
2023-05-20T02:01:07.374Z,0.75
2023-05-20T02:03:34.804Z,1.45
2023-05-20T02:06:02.268Z,0.75
2023-05-20T02:08:30.566Z,0.85
2023-05-20T02:10:57.901Z,0.77
2023-05-20T02:13:25.365Z,0.90
2023-05-20T02:15:52.556Z,1.10
2023-05-20T02:18:20.556Z,0.80
2023-05-20T02:20:48.026Z,1.67
2023-05-20T02:23:15.416Z,0.65
2023-05-20T02:25:43.643Z,0.75
2023-05-20T02:28:11.239Z,0.88
2023-05-20T02:30:39.377Z,1.00
2023-05-20T02:33:07.364Z,1.13
2023-05-20T02:35:35.029Z,0.57
2023-05-20T02:38:02.514Z,1.00
2023-05-20T02:40:29.766Z,0.68
2023-05-20T02:42:57.144Z,0.82
2023-05-20T02:45:24.313Z,1.00
2023-05-20T02:47:51.595Z,0.90
2023-05-20T02:50:18.899Z,0.60
2023-05-20T02:52:46.488Z,0.90
2023-05-20T02:55:14.062Z,1.38
2023-05-20T02:57:41.302Z,1.02
2023-05-20T03:00:13.674Z,0.60
2023-05-20T03:02:41.201Z,0.73
2023-05-20T03:05:08.915Z,0.63
2023-05-20T03:07:36.708Z,1.10
2023-05-20T03:10:05.163Z,1.42
2023-05-20T03:12:32.486Z,1.27
2023-05-20T03:15:00.629Z,0.90
2023-05-20T03:17:28.031Z,0.88
2023-05-20T03:19:55.419Z,0.70
2023-05-20T03:22:22.858Z,0.93
2023-05-20T03:24:50.160Z,0.70
2023-05-20T03:27:17.531Z,0.85
2023-05-20T03:29:45.133Z,0.80
2023-05-20T03:32:12.531Z,1.42
2023-05-20T03:34:39.699Z,1.33
2023-05-20T03:37:07.130Z,0.88
2023-05-20T03:39:34.351Z,0.80
2023-05-20T03:42:02.113Z,1.00
2023-05-20T03:44:29.376Z,0.80
2023-05-20T03:46:56.837Z,0.82
2023-05-20T03:49:24.369Z,0.85
2023-05-20T03:51:51.484Z,1.02
2023-05-20T03:54:18.649Z,0.73
2023-05-20T03:56:47.327Z,0.77
2023-05-20T03:59:14.503Z,0.60
2023-05-20T04:01:41.675Z,1.40
2023-05-20T04:04:09.152Z,0.75
2023-05-20T04:06:36.401Z,0.65
2023-05-20T04:09:04.292Z,1.25
2023-05-20T04:11:31.446Z,1.05
2023-05-20T04:14:01.354Z,0.80
2023-05-20T04:16:30.068Z,0.75
2023-05-20T04:18:59.518Z,0.90
2023-05-20T04:21:26.858Z,1.45
2023-05-20T04:23:54.100Z,1.38
2023-05-20T04:26:21.533Z,0.80
2023-05-20T04:28:52.154Z,0.90
2023-05-20T04:31:21.400Z,0.68
2023-05-20T04:33:48.677Z,1.02
2023-05-20T04:36:16.742Z,1.23
2023-05-20T04:38:45.069Z,1.10
2023-05-20T04:41:12.471Z,1.00
2023-05-20T04:43:40.532Z,0.85
2023-05-20T04:46:08.015Z,1.20
2023-05-20T04:48:35.503Z,1.00
2023-05-20T04:51:03.609Z,1.17
2023-05-20T04:53:30.985Z,0.90
2023-05-20T04:55:58.508Z,0.70
2023-05-20T04:58:26.175Z,1.20
2023-05-20T05:00:53.728Z,1.33
2023-05-20T05:03:20.914Z,0.85
2023-05-20T05:05:48.401Z,0.93
2023-05-20T05:08:15.680Z,0.80
2023-05-20T05:10:43.014Z,1.25
2023-05-20T05:13:10.847Z,0.93
2023-05-20T05:15:38.116Z,0.95
2023-05-20T05:18:05.367Z,0.90
2023-05-20T05:20:32.853Z,1.20
2023-05-20T05:23:00.227Z,1.00
2023-05-20T05:25:27.502Z,1.20
2023-05-20T05:27:55.684Z,0.80
2023-05-20T05:30:22.865Z,0.77
2023-05-20T05:32:50.452Z,1.13
2023-05-20T05:35:19.122Z,0.77
2023-05-20T05:37:46.381Z,1.42
2023-05-20T05:40:13.925Z,0.90
2023-05-20T05:42:41.422Z,0.98
2023-05-20T05:45:09.523Z,1.20
2023-05-20T05:47:37.182Z,1.10
2023-05-20T05:50:04.563Z,1.05
2023-05-20T05:52:31.733Z,1.33
2023-05-20T05:54:58.932Z,0.73
2023-05-20T05:57:26.450Z,1.40
2023-05-20T05:59:53.753Z,1.13
2023-05-20T06:02:21.787Z,1.13
2023-05-20T06:04:49.000Z,1.38
2023-05-20T06:07:16.275Z,1.20
2023-05-20T06:09:43.442Z,1.02
2023-05-20T06:12:13.271Z,1.33
2023-05-20T06:14:41.273Z,1.15
2023-05-20T06:17:08.957Z,1.15
2023-05-20T06:19:36.451Z,1.58
2023-05-20T06:22:04.110Z,1.20
2023-05-20T06:24:31.254Z,1.27
2023-05-20T06:26:58.519Z,1.13
2023-05-20T06:29:25.783Z,1.65
2023-05-20T06:31:53.057Z,1.60
2023-05-20T06:34:20.194Z,1.00
2023-05-20T06:36:47.512Z,0.90
2023-05-20T06:39:14.681Z,1.33
2023-05-20T06:41:41.996Z,1.63
2023-05-20T06:44:09.143Z,1.67
2023-05-20T06:46:36.630Z,1.60
2023-05-20T06:49:03.933Z,3.10
2023-05-20T06:51:31.288Z,1.30
2023-05-20T06:53:58.541Z,1.80
2023-05-20T06:56:25.945Z,1.30
2023-05-20T06:58:53.344Z,1.63
2023-05-20T07:01:20.644Z,1.58
2023-05-20T07:03:48.191Z,1.40
2023-05-20T07:06:15.401Z,1.65
2023-05-20T07:08:42.715Z,1.33
2023-05-20T07:11:10.050Z,1.70
2023-05-20T07:13:38.447Z,1.92
2023-05-20T07:16:06.188Z,1.23
2023-05-20T07:18:33.569Z,1.90
2023-05-20T07:21:00.826Z,1.33
2023-05-20T07:23:28.002Z,1.38
2023-05-20T07:25:55.046Z,1.38
2023-05-20T07:28:23.092Z,1.88
2023-05-20T07:30:50.792Z,3.20
2023-05-20T07:33:18.398Z,1.58
2023-05-20T07:35:46.545Z,1.00
2023-05-20T07:38:13.740Z,1.30
2023-05-20T07:40:42.389Z,1.77
2023-05-20T07:43:09.851Z,1.85
2023-05-20T07:45:37.616Z,1.50
2023-05-20T07:48:05.977Z,1.63
2023-05-20T07:50:34.655Z,1.35
2023-05-20T07:53:02.125Z,1.38
2023-05-20T07:55:29.460Z,1.23
2023-05-20T07:57:56.726Z,1.60
2023-05-20T08:00:24.472Z,1.45
2023-05-20T08:02:52.383Z,1.95
2023-05-20T08:05:19.797Z,0.95
2023-05-20T08:07:47.194Z,1.13
2023-05-20T08:10:14.484Z,1.20
2023-05-20T08:12:41.778Z,0.90
2023-05-20T08:15:09.588Z,1.20
2023-05-20T08:17:37.052Z,1.10
2023-05-20T08:20:04.994Z,1.05
2023-05-20T08:22:32.073Z,1.08
2023-05-20T08:24:59.309Z,1.45
2023-05-20T08:27:26.567Z,0.75
2023-05-20T08:29:53.830Z,4.60
2023-05-20T08:32:21.348Z,0.98
2023-05-20T08:34:49.579Z,1.10
2023-05-20T08:37:17.568Z,1.27
2023-05-20T08:39:46.883Z,0.80
2023-05-20T08:42:14.169Z,1.83
2023-05-20T08:44:42.362Z,2.55
2023-05-20T08:47:10.668Z,1.58
2023-05-20T08:49:38.899Z,1.38
2023-05-20T08:52:09.036Z,2.40
2023-05-20T08:54:54.784Z,1.20
2023-05-20T08:59:52.408Z,2.70
2023-05-20T09:02:19.800Z,3.97
2023-05-20T09:04:47.022Z,1.88
2023-05-20T09:07:28.362Z,1.58
2023-05-20T09:09:55.571Z,1.23
2023-05-20T09:12:22.735Z,1.65
2023-05-20T09:14:50.675Z,1.45
2023-05-20T09:17:20.871Z,1.20
2023-05-20T09:19:52.054Z,1.38
2023-05-20T09:22:29.878Z,1.75
2023-05-20T09:24:57.095Z,1.58
2023-05-20T09:27:24.978Z,1.13
2023-05-20T09:29:52.569Z,1.55
2023-05-20T09:32:24.418Z,1.27
2023-05-20T09:34:51.654Z,1.20
2023-05-20T09:37:21.845Z,1.30
2023-05-20T09:39:58.333Z,1.35
2023-05-20T09:42:42.686Z,2.65
2023-05-20T09:45:10.897Z,2.20
2023-05-20T09:47:42.514Z,1.92
2023-05-20T09:50:11.036Z,1.33
2023-05-20T09:52:39.545Z,1.42
2023-05-20T09:55:07.697Z,1.20
2023-05-20T09:57:36.368Z,1.42
2023-05-20T10:00:06.354Z,1.30
2023-05-20T10:02:37.181Z,1.35
2023-05-20T10:05:07.707Z,1.50
2023-05-20T10:07:44.264Z,1.17
2023-05-20T10:10:30.614Z,1.38
2023-05-20T10:13:25.563Z,1.27
2023-05-20T10:16:20.769Z,1.23
2023-05-20T10:19:26.142Z,1.20
2023-05-20T10:22:03.682Z,1.52
2023-05-20T10:24:32.892Z,1.33
2023-05-20T10:27:03.178Z,1.88
2023-05-20T10:29:30.843Z,1.27
2023-05-20T10:31:58.146Z,2.17
2023-05-20T10:34:25.573Z,1.20
2023-05-20T10:36:56.071Z,1.52
2023-05-20T10:39:30.571Z,1.48
2023-05-20T10:42:16.149Z,1.20
2023-05-20T10:44:45.025Z,1.00
2023-05-20T10:49:47.755Z,1.40
2023-05-20T10:52:23.245Z,1.20
2023-05-20T10:55:01.268Z,1.70
2023-05-20T10:57:29.706Z,1.73
2023-05-20T10:59:57.629Z,1.10
2023-05-20T11:02:29.269Z,1.40
2023-05-20T11:04:59.840Z,1.08
2023-05-20T11:07:31.704Z,1.20
2023-05-20T11:09:59.760Z,1.67
2023-05-20T11:12:28.285Z,1.60
2023-05-20T11:14:55.912Z,1.10
2023-05-20T11:17:23.182Z,1.13
2023-05-20T11:19:51.588Z,1.17
2023-05-20T11:22:18.779Z,1.20
2023-05-20T11:24:47.304Z,1.23
2023-05-20T11:27:14.877Z,1.38
2023-05-20T11:29:46.445Z,1.17
2023-05-20T11:32:14.430Z,1.77
2023-05-20T11:34:42.859Z,1.60
2023-05-20T11:37:11.859Z,1.50
2023-05-20T11:39:39.562Z,1.75
2023-05-20T11:42:06.815Z,1.40
2023-05-20T11:44:34.519Z,1.38
2023-05-20T11:47:03.743Z,2.55
2023-05-20T11:49:39.416Z,1.48
2023-05-20T11:52:09.688Z,1.52
2023-05-20T11:54:36.943Z,1.77
2023-05-20T11:57:05.734Z,1.35
2023-05-20T11:59:34.314Z,1.88
2023-05-20T12:02:01.571Z,1.95
2023-05-20T12:04:28.898Z,2.00
2023-05-20T12:06:56.298Z,2.20
2023-05-20T12:09:23.840Z,1.50
2023-05-20T12:11:51.202Z,2.00
2023-05-20T12:14:18.339Z,1.70
2023-05-20T12:16:45.681Z,1.27
2023-05-20T12:19:13.185Z,1.38
2023-05-20T12:21:40.723Z,1.73
2023-05-20T12:24:08.825Z,1.67
2023-05-20T12:26:36.209Z,2.00
2023-05-20T12:29:03.692Z,1.83
2023-05-20T12:31:33.824Z,1.65
2023-05-20T12:34:02.444Z,1.48
2023-05-20T12:36:29.875Z,1.60
2023-05-20T12:38:57.099Z,1.80
2023-05-20T12:41:24.640Z,1.58
2023-05-20T12:43:51.843Z,3.05
2023-05-20T12:46:19.353Z,1.65
2023-05-20T12:48:47.096Z,1.45
2023-05-20T12:51:14.365Z,1.50
2023-05-20T12:53:41.732Z,2.00
2023-05-20T12:56:09.211Z,1.35
2023-05-20T12:58:36.418Z,1.55
2023-05-20T13:01:03.760Z,1.20
2023-05-20T13:03:31.390Z,1.67
2023-05-20T13:05:59.642Z,1.25
2023-05-20T13:08:28.751Z,1.05
2023-05-20T13:10:56.690Z,1.35
2023-05-20T13:13:26.277Z,1.20
2023-05-20T13:15:53.584Z,1.02
2023-05-20T13:18:20.975Z,1.15
2023-05-20T13:20:48.517Z,1.50
2023-05-20T13:23:16.275Z,1.20
2023-05-20T13:25:44.718Z,3.20
2023-05-20T13:28:16.889Z,1.75
2023-05-20T13:30:44.369Z,1.92
2023-05-20T13:33:12.003Z,1.25
2023-05-20T13:35:39.192Z,1.27
2023-05-20T13:38:06.588Z,1.90
2023-05-20T13:40:34.575Z,1.20
2023-05-20T13:43:02.197Z,1.20
2023-05-20T13:45:30.012Z,1.42
2023-05-20T13:47:57.204Z,1.40
2023-05-20T13:50:24.461Z,1.33
2023-05-20T13:52:52.091Z,1.30
2023-05-20T13:55:19.368Z,1.00
2023-05-20T13:57:46.890Z,1.95
2023-05-20T14:00:15.039Z,1.55
2023-05-20T14:02:42.882Z,1.77
2023-05-20T14:05:10.404Z,2.20
2023-05-20T14:07:38.415Z,1.60
2023-05-20T14:10:07.121Z,1.58
2023-05-20T14:12:34.457Z,1.58
2023-05-20T14:15:01.998Z,1.30
2023-05-20T14:17:38.462Z,1.80
2023-05-20T14:20:06.536Z,1.70
2023-05-20T14:22:33.916Z,1.30
2023-05-20T14:25:01.328Z,3.38
2023-05-20T14:27:29.681Z,1.75
2023-05-20T14:29:56.866Z,1.38
2023-05-20T14:32:24.618Z,1.50
2023-05-20T14:34:54.128Z,2.13
2023-05-20T14:37:24.914Z,2.22
2023-05-20T14:39:54.574Z,1.60
2023-05-20T14:42:22.260Z,1.60
2023-05-20T14:44:52.094Z,2.05
2023-05-20T14:47:22.467Z,1.92
2023-05-20T14:49:51.979Z,1.77
2023-05-20T14:52:20.082Z,2.80
2023-05-20T14:54:47.534Z,2.13
2023-05-20T14:57:17.661Z,2.38
2023-05-20T14:59:45.074Z,2.17
2023-05-20T15:02:15.413Z,1.70
2023-05-20T15:04:45.473Z,1.60
2023-05-20T15:07:12.953Z,1.75
2023-05-20T15:09:40.342Z,2.53
2023-05-20T15:12:08.192Z,2.50
2023-05-20T15:14:35.339Z,2.10
2023-05-20T15:17:02.663Z,1.70
2023-05-20T15:19:31.506Z,1.88
2023-05-20T15:21:59.604Z,1.80
2023-05-20T15:24:26.959Z,2.05
2023-05-20T15:26:55.318Z,2.17
2023-05-20T15:29:23.116Z,2.92
2023-05-20T15:31:50.532Z,2.28
2023-05-20T15:34:18.809Z,2.72
2023-05-20T15:36:46.145Z,2.22
2023-05-20T15:39:13.537Z,2.42
2023-05-20T15:41:42.570Z,2.95
2023-05-20T15:44:10.062Z,2.17
2023-05-20T15:46:37.439Z,1.77
2023-05-20T15:49:04.966Z,1.70
2023-05-20T15:51:32.323Z,2.60
2023-05-20T15:53:59.570Z,4.20
2023-05-20T15:56:26.768Z,2.78
2023-05-20T15:58:53.951Z,2.25
2023-05-20T16:01:23.056Z,2.42
2023-05-20T16:03:50.572Z,1.92
2023-05-20T16:06:18.185Z,2.20
2023-05-20T16:08:45.346Z,2.10
2023-05-20T16:11:15.226Z,2.75
2023-05-20T16:13:42.683Z,2.20
2023-05-20T16:16:10.102Z,4.20
2023-05-20T16:18:39.882Z,2.20
2023-05-20T16:21:08.190Z,1.85
2023-05-20T16:23:35.461Z,2.22
2023-05-20T16:26:03.383Z,1.88
2023-05-20T16:28:30.868Z,2.50
2023-05-20T16:30:58.852Z,2.00
2023-05-20T16:33:26.253Z,2.45
2023-05-20T16:35:53.555Z,3.33
2023-05-20T16:38:20.860Z,1.98
2023-05-20T16:40:48.364Z,2.50
2023-05-20T16:43:15.725Z,2.20
2023-05-20T16:45:43.136Z,1.70
2023-05-20T16:48:11.503Z,2.40
2023-05-20T16:50:38.946Z,2.53
2023-05-20T16:53:06.077Z,1.85
2023-05-20T16:55:33.389Z,2.10
2023-05-20T16:58:01.294Z,2.60
2023-05-20T17:00:28.691Z,2.72
2023-05-20T17:02:56.140Z,2.20
2023-05-20T17:05:26.411Z,2.33
2023-05-20T17:07:55.971Z,2.40
2023-05-20T17:10:23.269Z,2.10
2023-05-20T17:12:50.551Z,2.75
2023-05-20T17:15:17.920Z,2.17
2023-05-20T17:17:45.232Z,2.85
2023-05-20T17:20:12.950Z,3.53
2023-05-20T17:22:40.360Z,2.70
2023-05-20T17:25:08.239Z,2.95
2023-05-20T17:27:35.659Z,4.63
2023-05-20T17:30:02.890Z,2.60
2023-05-20T17:32:30.534Z,2.08
2023-05-20T17:34:58.009Z,2.72
2023-05-20T17:37:25.233Z,2.22
2023-05-20T17:39:52.536Z,3.10
2023-05-20T17:42:19.862Z,2.78
2023-05-20T17:44:46.931Z,3.03
2023-05-20T17:47:14.236Z,2.60
2023-05-20T17:49:41.649Z,2.20
2023-05-20T17:52:08.816Z,2.97
2023-05-20T17:54:36.149Z,2.50
2023-05-20T17:57:03.331Z,2.97
2023-05-20T17:59:34.068Z,2.70
2023-05-20T18:02:01.520Z,2.97
2023-05-20T18:04:28.900Z,2.78
2023-05-20T18:06:56.301Z,2.70
2023-05-20T18:09:23.575Z,2.80
2023-05-20T18:11:50.992Z,2.95
2023-05-20T18:14:22.044Z,2.75
2023-05-20T18:16:49.617Z,3.03
2023-05-20T18:19:17.110Z,2.75
2023-05-20T18:21:44.825Z,3.00
2023-05-20T18:24:12.280Z,2.47
2023-05-20T18:26:39.723Z,3.65
2023-05-20T18:29:07.175Z,3.60
2023-05-20T18:31:34.757Z,3.00
2023-05-20T18:34:02.362Z,3.05
2023-05-20T18:36:30.678Z,3.08
2023-05-20T18:38:58.082Z,3.55
2023-05-20T18:41:32.379Z,3.95
2023-05-20T18:44:13.075Z,3.33
2023-05-20T18:46:40.775Z,3.50
2023-05-20T18:49:08.071Z,3.38
2023-05-20T18:51:35.143Z,3.45
2023-05-20T18:54:02.668Z,3.92
2023-05-20T18:56:30.122Z,2.78
2023-05-20T18:58:57.409Z,3.00
2023-05-20T19:01:24.709Z,3.47
2023-05-20T19:03:52.058Z,4.35
2023-05-20T19:06:19.579Z,3.50
2023-05-20T19:08:46.888Z,3.22
2023-05-20T19:11:14.313Z,3.20
2023-05-20T19:13:41.918Z,3.05
2023-05-20T19:16:09.498Z,3.30
2023-05-20T19:18:36.785Z,3.10
2023-05-20T19:21:04.022Z,3.35
2023-05-20T19:23:32.708Z,2.80
2023-05-20T19:25:59.891Z,2.90
2023-05-20T19:28:27.178Z,3.50
2023-05-20T19:30:54.669Z,3.05
2023-05-20T19:33:22.238Z,3.10
2023-05-20T19:35:49.388Z,3.22
2023-05-20T19:38:17.095Z,3.45
2023-05-20T19:40:45.260Z,3.60
2023-05-20T19:43:12.453Z,3.20
2023-05-20T19:45:39.918Z,3.45
2023-05-20T19:48:08.069Z,3.00
2023-05-20T19:50:35.783Z,3.00
2023-05-20T19:53:06.973Z,3.17
2023-05-20T19:55:41.810Z,3.03
2023-05-20T19:58:10.086Z,4.05
2023-05-20T20:00:40.048Z,3.60
2023-05-20T20:03:07.721Z,3.28
2023-05-20T20:05:35.318Z,2.95
2023-05-20T20:08:03.023Z,2.65
2023-05-20T20:10:31.280Z,3.40
2023-05-20T20:12:58.589Z,4.25
2023-05-20T20:15:27.599Z,3.22
2023-05-20T20:17:55.002Z,2.95
2023-05-20T20:20:23.774Z,2.85
2023-05-20T20:22:51.208Z,2.83
2023-05-20T20:25:18.889Z,3.40
2023-05-20T20:27:46.291Z,3.97
2023-05-20T20:30:14.626Z,3.35
2023-05-20T20:32:42.773Z,3.22
2023-05-20T20:35:11.259Z,4.20
2023-05-20T20:37:38.950Z,3.10
2023-05-20T20:40:08.321Z,2.85
2023-05-20T20:42:35.476Z,3.17
2023-05-20T20:45:04.534Z,3.60
2023-05-20T20:47:31.643Z,3.95
2023-05-20T20:49:59.087Z,2.90
2023-05-20T20:52:26.858Z,2.92
2023-05-20T20:54:54.231Z,3.33
2023-05-20T20:57:22.597Z,3.78
2023-05-20T20:59:50.878Z,3.88
2023-05-20T21:02:19.787Z,3.33
2023-05-20T21:04:47.645Z,3.28
2023-05-20T21:07:18.655Z,3.97
2023-05-20T21:09:46.715Z,3.55
2023-05-20T21:12:14.030Z,3.53
2023-05-20T21:14:44.914Z,3.00
2023-05-20T21:17:12.381Z,2.50
2023-05-20T21:19:39.676Z,2.45
2023-05-20T21:22:07.236Z,3.00
2023-05-20T21:24:34.397Z,2.30
2023-05-20T21:27:03.076Z,3.28
2023-05-20T21:29:31.598Z,2.80
2023-05-20T21:31:58.984Z,2.35
2023-05-20T21:34:26.159Z,2.33
2023-05-20T21:36:53.370Z,1.85
2023-05-20T21:39:20.499Z,2.00
2023-05-20T21:41:48.121Z,1.95
2023-05-20T21:44:15.686Z,1.98
2023-05-20T21:46:43.083Z,2.22
2023-05-20T21:49:10.324Z,1.42
2023-05-20T21:51:37.701Z,1.98
2023-05-20T21:54:07.307Z,2.25
2023-05-20T21:56:34.492Z,1.77
2023-05-20T21:59:01.876Z,1.48
2023-05-20T22:01:29.277Z,1.65
2023-05-20T22:03:57.050Z,1.30
2023-05-20T22:06:26.239Z,1.50
2023-05-20T22:08:54.226Z,1.50
2023-05-20T22:11:22.036Z,1.40
2023-05-20T22:13:49.270Z,2.47
2023-05-20T22:16:17.041Z,2.40
2023-05-20T22:18:44.822Z,1.67
2023-05-20T22:21:12.532Z,1.80
2023-05-20T22:23:41.286Z,1.80
2023-05-20T22:26:11.089Z,1.73
2023-05-20T22:28:38.298Z,1.65
2023-05-20T22:31:05.648Z,2.03
2023-05-20T22:33:33.053Z,1.73
2023-05-20T22:36:00.359Z,2.03
2023-05-20T22:38:30.321Z,1.85
2023-05-20T22:40:57.704Z,2.20
2023-05-20T22:43:26.788Z,2.38
2023-05-20T22:45:54.105Z,1.40
2023-05-20T22:48:24.630Z,1.73
2023-05-20T22:50:52.042Z,1.70
2023-05-20T22:53:19.295Z,2.22
2023-05-20T22:55:46.672Z,1.58
2023-05-20T22:58:14.176Z,1.50
2023-05-20T23:00:42.191Z,2.55
2023-05-20T23:03:09.683Z,3.72
2023-05-20T23:05:37.148Z,1.40
2023-05-20T23:08:04.808Z,1.77
2023-05-20T23:10:32.092Z,2.25
2023-05-20T23:12:59.226Z,1.60
2023-05-20T23:15:26.600Z,1.52
2023-05-20T23:17:53.933Z,2.38
2023-05-20T23:20:22.565Z,2.58
2023-05-20T23:22:49.948Z,1.55
2023-05-20T23:25:17.226Z,1.85
2023-05-20T23:27:44.692Z,1.30
2023-05-20T23:30:12.204Z,1.60
2023-05-20T23:32:39.533Z,1.77
2023-05-20T23:35:07.803Z,1.48
2023-05-20T23:37:35.103Z,1.40
2023-05-20T23:40:02.386Z,1.75
2023-05-20T23:42:30.606Z,1.42
2023-05-20T23:44:58.165Z,2.40
2023-05-20T23:47:30.231Z,2.20
2023-05-20T23:49:58.241Z,1.15
2023-05-20T23:52:26.745Z,2.80
2023-05-20T23:54:54.126Z,2.05
2023-05-20T23:57:21.345Z,1.77
2023-05-20T23:59:52.095Z,1.80
